Time;durP1;ratioP1;P1;durP2;ratioP2;P2;SDS_P1;SDS_P2;PMS_P1;PMS_P2;Temp;Humidity;BMP_temperature;BMP_pressure;BME280_temperature;BME280_humidity;BME280_pressure;Samples;Min_cycle;Max_cycle;Signal;HPM_P1;HPM_P2
2022/04/12 00:01:23;;;;;;;14.25;5.88;;;;;;;10.57;53.03;99177.47;4986581;28;20050;-42
2022/04/12 00:03:50;;;;;;;15.48;6.40;;;;;;;10.59;53.15;99174.84;4986111;28;20688;-44
2022/04/12 00:06:17;;;;;;;13.02;5.65;;;;;;;10.58;52.89;99175.72;4986191;28;20050;-45
2022/04/12 00:08:43;;;;;;;17.38;6.47;;;;;;;10.57;53.24;99174.03;4982409;28;20046;-40
2022/04/12 00:11:10;;;;;;;18.25;6.00;;;;;;;10.52;53.51;99176.69;4987433;28;20047;-45
2022/04/12 00:13:37;;;;;;;14.57;6.05;;;;;;;10.56;53.72;99164.53;4985605;28;20058;-45
2022/04/12 00:16:04;;;;;;;13.18;6.13;;;;;;;10.54;53.72;99164.59;4984052;28;20104;-43
2022/04/12 00:21:20;;;;;;;14.82;6.30;;;;;;;10.46;54.26;99177.63;4982104;28;20057;-45
2022/04/12 00:24:07;;;;;;;13.60;5.40;;;;;;;10.43;54.04;99177.66;4982289;28;20049;-42
2022/04/12 00:26:35;;;;;;;17.45;7.25;;;;;;;10.40;54.42;99172.53;4982974;28;20046;-43
2022/04/12 00:29:03;;;;;;;17.40;5.93;;;;;;;10.40;54.70;99172.53;4985747;28;20552;-45
2022/04/12 00:31:32;;;;;;;17.10;6.38;;;;;;;10.44;54.46;99169.03;4979661;28;20569;-44
2022/04/12 00:34:00;;;;;;;16.40;5.50;;;;;;;10.45;54.60;99170.75;4985268;28;20066;-43
2022/04/12 00:36:28;;;;;;;15.48;6.03;;;;;;;10.49;54.22;99171.56;4983319;28;20046;-42
2022/04/12 00:38:55;;;;;;;14.98;5.50;;;;;;;10.48;54.52;99169.84;4985326;28;20123;-41
2022/04/12 00:41:22;;;;;;;15.50;6.13;;;;;;;10.49;54.21;99162.06;4986121;28;20121;-47
2022/04/12 00:43:50;;;;;;;15.90;6.45;;;;;;;10.49;54.59;99162.06;4985240;28;20050;-44
2022/04/12 00:46:16;;;;;;;14.30;5.32;;;;;;;10.49;54.65;99156.88;4983503;28;20050;-44
2022/04/12 00:48:43;;;;;;;11.70;5.53;;;;;;;10.51;54.40;99164.63;4987383;28;20132;-43
2022/04/12 00:51:10;;;;;;;16.38;6.45;;;;;;;10.49;54.50;99151.72;4986984;28;20053;-43
2022/04/12 00:53:37;;;;;;;16.17;6.03;;;;;;;10.52;54.46;99154.25;4988323;28;20046;-42
2022/04/12 00:56:05;;;;;;;14.70;6.15;;;;;;;10.54;54.79;99160.25;4986162;28;20142;-41
2022/04/12 00:58:32;;;;;;;15.43;7.25;;;;;;;10.54;54.75;99151.63;4986003;28;20066;-43
2022/04/12 01:00:59;;;;;;;18.58;6.25;;;;;;;10.51;54.94;99144.75;4986113;28;20050;-43
2022/04/12 01:03:44;;;;;;;12.98;6.20;;;;;;;10.50;54.74;99143.06;4984190;28;20084;-41
2022/04/12 01:06:11;;;;;;;14.90;6.10;;;;;;;10.50;55.08;99148.22;4982766;28;20046;-43
2022/04/12 01:08:37;;;;;;;15.55;6.68;;;;;;;10.47;54.88;99145.69;4983653;28;20042;-45
2022/04/12 01:11:06;;;;;;;17.23;7.03;;;;;;;10.47;55.48;99137.91;4985075;28;20046;-41
2022/04/12 01:13:35;;;;;;;20.00;6.32;;;;;;;10.43;55.78;99141.41;4985534;28;20100;-44
2022/04/12 01:16:04;;;;;;;13.05;5.63;;;;;;;10.44;55.20;99137.97;4983446;28;20057;-46
2022/04/12 01:18:31;;;;;;;16.50;6.20;;;;;;;10.45;55.86;99139.69;4984530;28;20047;-44
2022/04/12 01:20:58;;;;;;;14.05;6.15;;;;;;;10.45;55.79;99134.53;4981910;28;20124;-44
2022/04/12 01:23:32;;;;;;;13.68;5.78;;;;;;;10.44;56.03;99131.91;4984195;28;20061;-42
2022/04/12 01:25:59;;;;;;;14.52;7.40;;;;;;;10.43;55.85;99131.06;4983039;28;20547;-42
2022/04/12 01:28:26;;;;;;;14.95;6.13;;;;;;;10.42;56.21;99121.59;4984420;28;20046;-41
2022/04/12 01:30:54;;;;;;;14.02;6.28;;;;;;;10.43;55.86;99115.53;4982617;28;20062;-42
2022/04/12 01:33:21;;;;;;;12.23;6.00;;;;;;;10.41;55.97;99112.13;4981638;28;20050;-42
2022/04/12 01:35:47;;;;;;;18.63;6.50;;;;;;;10.41;56.10;99106.94;4981371;28;20490;-46
2022/04/12 01:38:14;;;;;;;15.30;6.35;;;;;;;10.43;55.83;99105.16;4985664;28;20058;-45
2022/04/12 01:40:41;;;;;;;15.65;6.50;;;;;;;10.40;56.41;99111.25;4983934;28;20665;-43
2022/04/12 01:43:07;;;;;;;15.88;6.88;;;;;;;10.37;57.34;99103.53;4983970;28;20108;-43
2022/04/12 01:45:34;;;;;;;17.80;6.22;;;;;;;10.37;56.96;99105.28;4984629;28;20054;-45
2022/04/12 01:48:01;;;;;;;17.92;6.57;;;;;;;10.37;56.61;99106.13;4982928;28;20100;-45
2022/04/12 01:50:28;;;;;;;17.15;6.38;;;;;;;10.38;56.72;99107.00;4985367;28;20104;-42
2022/04/12 01:52:54;;;;;;;17.27;6.40;;;;;;;10.38;56.60;99101.81;4987355;28;20050;-44
2022/04/12 01:55:21;;;;;;;18.40;6.68;;;;;;;10.36;56.56;99099.25;4987582;28;20051;-44
2022/04/12 01:57:47;;;;;;;15.48;6.72;;;;;;;10.39;56.63;99095.75;4988033;28;20572;-50
2022/04/12 02:00:14;;;;;;;13.52;5.85;;;;;;;10.40;56.65;99089.69;4987145;28;21472;-46
2022/04/12 02:02:41;;;;;;;17.10;5.95;;;;;;;10.41;56.53;99091.41;4986704;28;20050;-42
2022/04/12 02:05:08;;;;;;;15.70;6.60;;;;;;;10.43;56.94;99110.34;4985701;28;20057;-45
2022/04/12 02:07:35;;;;;;;16.15;6.30;;;;;;;10.43;57.10;99115.53;4982955;28;20050;-41
2022/04/12 02:10:03;;;;;;;16.80;6.55;;;;;;;10.40;56.76;99106.09;4986356;28;20120;-45
2022/04/12 02:12:30;;;;;;;20.50;7.38;;;;;;;10.41;56.71;99112.13;4985036;28;20042;-42
2022/04/12 02:14:56;;;;;;;15.15;6.18;;;;;;;10.38;57.01;99113.03;4989323;28;20077;-47
2022/04/12 02:17:23;;;;;;;20.02;6.63;;;;;;;10.39;56.84;99108.69;4986103;28;20650;-44
2022/04/12 02:19:50;;;;;;;18.90;6.82;;;;;;;10.38;57.27;99110.44;4989955;28;20054;-44
2022/04/12 02:22:16;;;;;;;20.52;7.82;;;;;;;10.38;56.79;99107.00;4987202;28;21113;-48
2022/04/12 02:24:43;;;;;;;19.55;6.25;;;;;;;10.39;56.48;99099.22;4986887;28;20668;-40
2022/04/12 02:27:27;;;;;;;18.85;6.85;;;;;;;10.41;57.16;99096.59;4986170;28;20092;-43
2022/04/12 02:29:53;;;;;;;19.98;6.63;;;;;;;10.41;57.12;99096.59;4987903;28;20526;-43
2022/04/12 02:32:20;;;;;;;14.73;6.40;;;;;;;10.39;57.22;99087.97;4981426;28;20137;-44
2022/04/12 02:34:47;;;;;;;19.70;6.60;;;;;;;10.36;56.80;99093.22;4987541;28;20051;-48
2022/04/12 02:37:13;;;;;;;20.70;6.88;;;;;;;10.38;57.43;99101.81;4985157;28;20195;-40
2022/04/12 02:39:40;;;;;;;16.13;7.07;;;;;;;10.38;56.81;99097.50;4985570;28;20046;-43
2022/04/12 02:42:07;;;;;;;15.40;6.53;;;;;;;10.37;57.35;99095.78;4983178;28;20105;-43
2022/04/12 02:44:34;;;;;;;15.80;6.45;;;;;;;10.36;57.14;99098.38;4985019;28;20479;-43
2022/04/12 02:47:00;;;;;;;16.45;7.22;;;;;;;10.35;57.29;99105.31;4985740;28;20125;-44
2022/04/12 02:49:27;;;;;;;20.02;8.07;;;;;;;10.33;57.05;99103.63;4988600;28;20422;-50
2022/04/12 02:51:53;;;;;;;17.83;7.18;;;;;;;10.28;57.33;99096.81;4988470;28;20482;-44
2022/04/12 02:54:20;;;;;;;17.48;6.57;;;;;;;10.25;57.22;99096.84;4990391;28;20749;-42
2022/04/12 02:56:46;;;;;;;18.02;7.53;;;;;;;10.21;57.14;99090.03;4985159;28;20525;-46
2022/04/12 02:59:13;;;;;;;17.52;6.45;;;;;;;10.15;57.37;99074.59;4986705;28;20046;-42
2022/04/12 03:01:40;;;;;;;20.55;7.45;;;;;;;10.10;57.74;99073.81;4987230;28;20104;-42
2022/04/12 03:04:07;;;;;;;19.80;6.75;;;;;;;10.07;56.68;99068.69;4988047;28;20081;-42
2022/04/12 03:06:33;;;;;;;19.58;6.95;;;;;;;10.00;57.56;99066.19;4989020;28;20124;-43
2022/04/12 03:09:00;;;;;;;15.98;6.88;;;;;;;9.96;57.42;99069.72;4986474;28;20050;-47
2022/04/12 03:11:26;;;;;;;20.25;7.15;;;;;;;9.89;57.69;99079.31;4985114;28;20611;-46
2022/04/12 03:13:53;;;;;;;18.42;7.82;;;;;;;9.84;57.91;99077.66;4987803;28;20141;-41
2022/04/12 03:16:20;;;;;;;19.10;7.00;;;;;;;9.79;57.75;99079.47;4986612;28;20050;-43
2022/04/12 03:18:46;;;;;;;18.58;6.78;;;;;;;9.74;58.16;99085.56;4987042;28;20548;-45
2022/04/12 03:21:13;;;;;;;18.38;8.13;;;;;;;9.68;58.85;99085.66;4985757;28;20441;-44
2022/04/12 03:23:39;;;;;;;16.95;7.63;;;;;;;9.67;58.18;99090.84;4987408;28;20050;-42
2022/04/12 03:26:06;;;;;;;16.55;7.55;;;;;;;9.63;58.55;99088.28;4986701;28;20113;-41
2022/04/12 03:28:33;;;;;;;17.45;7.45;;;;;;;9.61;57.96;99089.19;4982492;28;20112;-40
2022/04/12 03:31:00;;;;;;;17.33;7.57;;;;;;;9.59;58.08;99088.38;4982092;28;20120;-43
2022/04/12 03:33:27;;;;;;;18.38;6.45;;;;;;;9.56;58.11;99088.41;4985531;28;20502;-44
2022/04/12 03:35:53;;;;;;;16.25;6.95;;;;;;;9.52;58.22;99093.63;4985085;28;20482;-44
2022/04/12 03:38:20;;;;;;;18.00;6.90;;;;;;;9.50;58.66;99097.13;4987027;28;20057;-42
2022/04/12 03:41:05;;;;;;;21.20;7.55;;;;;;;9.46;58.13;99085.94;4983383;28;20081;-45
2022/04/12 03:43:31;;;;;;;20.92;7.60;;;;;;;9.46;58.66;99082.53;4981557;28;20042;-43
2022/04/12 03:45:58;;;;;;;16.60;7.13;;;;;;;9.44;58.72;99082.53;4984310;28;20046;-41
2022/04/12 03:48:25;;;;;;;21.67;7.85;;;;;;;9.41;59.11;99077.41;4986762;28;20058;-44
2022/04/12 03:50:51;;;;;;;19.10;7.90;;;;;;;9.40;58.87;99080.88;4985296;28;20112;-42
2022/04/12 03:53:18;;;;;;;21.90;7.28;;;;;;;9.37;59.56;99078.34;4983442;28;20038;-46
2022/04/12 03:55:46;;;;;;;15.85;7.75;;;;;;;9.37;58.73;99080.91;4986542;28;20659;-42
2022/04/12 03:58:30;;;;;;;18.10;7.50;;;;;;;9.32;59.39;99072.38;4984876;28;20049;-44
2022/04/12 04:00:56;;;;;;;22.52;8.30;;;;;;;9.31;58.79;99068.06;4985267;28;20114;-40
2022/04/12 04:03:23;;;;;;;19.83;7.30;;;;;;;9.28;58.81;99070.72;4986532;28;20042;-43
2022/04/12 04:05:50;;;;;;;17.17;6.82;;;;;;;9.23;59.05;99063.84;4982503;28;20105;-43
2022/04/12 04:08:17;;;;;;;14.85;7.10;;;;;;;9.18;59.60;99049.31;4984449;28;20054;-42
2022/04/12 04:10:43;;;;;;;16.17;7.70;;;;;;;9.11;59.67;99053.69;4985933;28;20051;-41
2022/04/12 04:13:11;;;;;;;16.77;6.93;;;;;;;9.06;59.94;99050.31;4983303;28;20049;-43
2022/04/12 04:15:40;;;;;;;18.08;7.15;;;;;;;9.00;60.16;99067.59;4983384;28;20039;-45
2022/04/12 04:18:08;;;;;;;19.00;7.10;;;;;;;8.94;60.19;99064.22;4985255;28;20046;-44
2022/04/12 04:20:35;;;;;;;19.23;7.72;;;;;;;8.87;60.11;99055.69;4987185;28;20061;-43
2022/04/12 04:23:02;;;;;;;17.60;7.53;;;;;;;8.84;60.52;99066.06;4983745;28;20054;-44
2022/04/12 04:25:29;;;;;;;16.83;6.65;;;;;;;8.80;59.40;99060.09;4981746;28;20513;-42
2022/04/12 04:27:56;;;;;;;21.42;7.85;;;;;;;8.78;60.35;99066.13;4982671;28;20050;-45
2022/04/12 04:30:22;;;;;;;18.85;8.35;;;;;;;8.76;59.89;99057.53;4979231;28;20055;-44
2022/04/12 04:32:50;;;;;;;19.90;7.95;;;;;;;8.76;60.77;99052.38;4984891;28;20564;-43
2022/04/12 04:35:17;;;;;;;19.48;8.02;;;;;;;8.75;61.07;99051.53;4984656;28;20050;-44
2022/04/12 04:37:46;;;;;;;20.00;7.72;;;;;;;8.73;60.21;99041.22;4984398;28;20729;-45
2022/04/12 04:40:16;;;;;;;18.65;7.10;;;;;;;8.71;60.51;99040.38;4983940;28;20671;-41
2022/04/12 04:42:44;;;;;;;19.35;7.55;;;;;;;8.69;60.29;99036.97;4985822;28;20053;-41
2022/04/12 04:45:13;;;;;;;19.80;8.68;;;;;;;8.67;60.29;99033.53;4984986;28;20097;-45
2022/04/12 04:50:29;;;;;;;22.58;9.07;;;;;;;8.63;60.49;99026.72;5006582;28;20415;-42
2022/04/12 04:52:57;;;;;;;20.30;8.27;;;;;;;8.59;60.15;99019.88;5002974;28;20096;-42
2022/04/12 04:55:24;;;;;;;17.75;9.60;;;;;;;8.55;60.87;99013.03;5000690;28;20574;-42
2022/04/12 04:57:56;;;;;;;14.20;7.40;;;;;;;8.46;61.37;99009.66;5001913;28;20732;-43
2022/04/12 05:00:25;;;;;;;20.55;9.35;;;;;;;8.44;60.46;99001.06;4997879;28;20058;-45
2022/04/12 05:02:54;;;;;;;19.75;6.95;;;;;;;8.41;61.95;99003.66;4981307;28;20430;-43
2022/04/12 05:05:21;;;;;;;19.98;8.85;;;;;;;8.36;62.20;99002.88;4988884;28;20540;-46
2022/04/12 05:08:06;;;;;;;22.20;8.95;;;;;;;8.33;61.36;99005.47;4982823;28;20563;-41
2022/04/12 05:10:32;;;;;;;22.67;9.48;;;;;;;8.31;62.31;99014.97;4982859;28;20494;-42
2022/04/12 05:13:02;;;;;;;24.15;10.07;;;;;;;8.29;61.41;99038.22;4987773;28;20050;-47
2022/04/12 05:15:29;;;;;;;19.92;9.32;;;;;;;8.28;62.35;99030.47;4991187;28;20050;-44
2022/04/12 05:18:02;;;;;;;25.70;9.45;;;;;;;8.25;61.62;99031.38;4999395;28;20050;-41
2022/04/12 05:20:28;;;;;;;20.08;9.00;;;;;;;8.26;60.97;99021.88;5003534;28;20054;-41
2022/04/12 05:22:55;;;;;;;26.98;9.95;;;;;;;8.27;62.00;99018.47;5004667;28;20057;-44
2022/04/12 05:25:22;;;;;;;20.10;8.95;;;;;;;8.27;60.92;99016.72;5000259;28;20135;-42
2022/04/12 05:27:49;;;;;;;21.77;7.45;;;;;;;8.28;61.31;99020.16;4999188;28;20685;-44
2022/04/12 05:30:16;;;;;;;23.00;10.13;;;;;;;8.27;61.67;99013.31;4999800;28;20116;-42
2022/04/12 05:32:44;;;;;;;21.20;9.18;;;;;;;8.29;62.32;99011.53;5000860;28;20078;-41
2022/04/12 05:35:12;;;;;;;22.63;8.65;;;;;;;8.29;62.53;99012.41;5000130;28;20434;-41
2022/04/12 05:37:48;;;;;;;22.42;9.88;;;;;;;8.31;62.38;99014.97;4998368;28;20054;-41
2022/04/12 05:40:18;;;;;;;20.58;9.52;;;;;;;8.35;61.74;99021.81;4999018;28;20054;-44
2022/04/12 05:42:45;;;;;;;19.63;8.95;;;;;;;8.35;61.64;99026.97;4997314;28;20057;-43
2022/04/12 05:45:13;;;;;;;19.48;8.85;;;;;;;8.36;61.11;99039.00;4999002;28;20042;-44
2022/04/12 05:47:44;;;;;;;22.23;9.90;;;;;;;8.33;62.66;99036.44;5000693;28;20053;-42
2022/04/12 05:50:12;;;;;;;20.38;9.57;;;;;;;8.25;63.15;99046.84;4997721;28;20076;-43
2022/04/12 05:52:40;;;;;;;18.95;8.25;;;;;;;8.13;64.62;99047.81;4995257;28;20553;-44
2022/04/12 05:55:08;;;;;;;22.20;9.30;;;;;;;8.09;63.71;99035.81;5000379;28;20054;-42
2022/04/12 05:57:37;;;;;;;21.83;9.82;;;;;;;8.12;64.00;99025.47;5001220;28;20053;-43
2022/04/12 06:00:07;;;;;;;19.40;9.60;;;;;;;8.18;62.84;99025.41;4999166;28;20050;-43
2022/04/12 06:02:34;;;;;;;20.77;9.80;;;;;;;8.23;63.01;99015.91;4982252;28;20105;-44
2022/04/12 06:05:01;;;;;;;22.48;9.60;;;;;;;8.29;63.01;99019.28;4985961;28;20049;-42
2022/04/12 06:07:31;;;;;;;21.60;9.55;;;;;;;8.32;62.56;99017.56;4986973;28;20517;-43
2022/04/12 06:10:01;;;;;;;22.40;9.98;;;;;;;8.37;63.46;99012.31;4989189;28;20117;-46
2022/04/12 06:12:28;;;;;;;23.40;10.70;;;;;;;8.41;62.73;99021.72;4990436;28;20217;-44
2022/04/12 06:14:55;;;;;;;21.08;9.30;;;;;;;8.43;62.64;99020.00;4990027;28;20050;-42
2022/04/12 06:17:28;;;;;;;21.58;9.35;;;;;;;8.46;62.96;99019.97;4984683;28;20055;-44
2022/04/12 06:20:00;;;;;;;21.10;10.00;;;;;;;8.48;63.31;99023.38;4986030;28;20061;-43
2022/04/12 06:22:27;;;;;;;23.27;9.68;;;;;;;8.52;63.97;99028.53;4986715;28;20047;-43
2022/04/12 06:24:53;;;;;;;21.13;9.57;;;;;;;8.57;62.90;99024.19;4988455;28;20058;-43
2022/04/12 06:27:42;;;;;;;25.10;11.73;;;;;;;8.60;63.90;99019.84;4989636;28;20057;-44
2022/04/12 06:30:14;;;;;;;26.42;10.77;;;;;;;8.68;63.71;99026.66;4984595;28;20050;-44
2022/04/12 06:32:42;;;;;;;22.52;10.50;;;;;;;8.74;63.60;99030.03;4986289;28;20082;-44
2022/04/12 06:35:10;;;;;;;20.08;9.68;;;;;;;8.78;63.09;99027.41;4984686;28;20111;-42
2022/04/12 06:37:40;;;;;;;25.80;11.25;;;;;;;8.84;63.14;99029.91;4986762;28;20054;-44
2022/04/12 06:40:08;;;;;;;20.50;9.52;;;;;;;8.86;63.42;99033.34;4986457;28;20043;-43
2022/04/12 06:42:35;;;;;;;23.52;9.95;;;;;;;8.87;63.55;99035.03;4985355;28;20089;-43
2022/04/12 06:45:07;;;;;;;23.73;10.20;;;;;;;8.90;64.16;99035.00;4983739;28;20054;-43
2022/04/12 06:47:35;;;;;;;21.20;10.18;;;;;;;8.96;64.24;99029.78;4986958;28;20050;-47
2022/04/12 06:50:03;;;;;;;23.45;10.43;;;;;;;9.00;64.02;99026.28;4983865;28;20140;-43
2022/04/12 06:52:29;;;;;;;22.52;10.27;;;;;;;9.04;64.47;99026.22;4981712;28;20843;-46
2022/04/12 06:54:56;;;;;;;24.38;10.27;;;;;;;9.06;64.06;99033.09;4988233;28;20054;-44
2022/04/12 06:57:23;;;;;;;24.70;10.00;;;;;;;9.07;64.10;99031.34;4984518;28;20109;-44
2022/04/12 06:59:51;;;;;;;27.02;10.27;;;;;;;9.10;64.79;99047.69;4985214;28;20046;-42
2022/04/12 07:02:18;;;;;;;26.75;10.65;;;;;;;9.10;65.23;99033.91;4984514;28;20042;-43
2022/04/12 07:04:44;;;;;;;23.58;10.10;;;;;;;9.10;65.00;99023.56;4984232;28;20077;-43
2022/04/12 07:07:11;;;;;;;21.58;9.85;;;;;;;9.08;66.05;99009.78;4981286;28;20050;-50
2022/04/12 07:09:38;;;;;;;22.77;10.55;;;;;;;9.13;64.67;99015.78;4985986;28;20108;-42
2022/04/12 07:12:05;;;;;;;22.50;10.15;;;;;;;9.13;65.38;99011.44;4983138;28;21217;-41
2022/04/12 07:14:32;;;;;;;26.05;11.15;;;;;;;9.19;65.28;99007.94;4978888;28;20062;-44
2022/04/12 07:16:59;;;;;;;24.80;10.90;;;;;;;9.23;65.22;99007.00;4987020;28;20062;-44
2022/04/12 07:19:26;;;;;;;24.58;9.90;;;;;;;9.29;65.36;99007.81;4984948;28;21032;-43
2022/04/12 07:21:53;;;;;;;20.63;10.52;;;;;;;9.32;65.14;99005.19;4984019;28;20057;-43
2022/04/12 07:24:20;;;;;;;24.50;10.32;;;;;;;9.34;65.07;99008.59;4984320;28;20054;-42
2022/04/12 07:26:47;;;;;;;22.08;9.52;;;;;;;9.36;65.54;99007.69;4982365;28;20058;-47
2022/04/12 07:29:14;;;;;;;24.33;9.63;;;;;;;9.39;65.67;99004.19;4979803;28;20054;-45
2022/04/12 07:31:41;;;;;;;28.27;11.48;;;;;;;9.46;65.72;99003.22;4981818;28;20129;-44
2022/04/12 07:34:09;;;;;;;20.92;10.05;;;;;;;9.51;65.58;99004.03;4984419;28;20054;-47
2022/04/12 07:36:39;;;;;;;20.45;10.90;;;;;;;9.59;65.50;99013.41;4983942;28;20062;-45
2022/04/12 07:39:15;;;;;;;22.65;9.93;;;;;;;9.66;65.70;99004.66;4986616;28;20053;-44
2022/04/12 07:41:43;;;;;;;24.38;11.13;;;;;;;9.70;65.21;98988.25;4980680;28;20074;-43
2022/04/12 07:44:09;;;;;;;22.42;11.15;;;;;;;9.76;65.10;98982.09;4986410;28;20047;-42
2022/04/12 07:46:36;;;;;;;22.75;10.30;;;;;;;9.80;64.98;98980.31;4986998;28;20058;-43
2022/04/12 07:49:03;;;;;;;22.42;9.13;;;;;;;9.85;65.42;98983.69;4986789;28;20414;-41
2022/04/12 07:51:29;;;;;;;20.45;10.00;;;;;;;9.85;66.02;98974.19;4985857;28;20050;-44
2022/04/12 07:53:56;;;;;;;25.08;10.70;;;;;;;9.89;66.06;98985.31;4982090;28;20054;-42
2022/04/12 07:56:23;;;;;;;31.60;10.82;;;;;;;9.93;65.77;98986.97;4984334;28;20046;-43
2022/04/12 07:58:49;;;;;;;20.92;9.35;;;;;;;9.94;66.06;98988.72;4986453;28;20058;-42
2022/04/12 08:01:16;;;;;;;23.00;9.63;;;;;;;9.97;65.60;98983.47;4980590;28;20046;-42
2022/04/12 08:03:43;;;;;;;21.63;9.77;;;;;;;10.00;65.44;98980.81;4983827;28;20046;-46
2022/04/12 08:06:09;;;;;;;24.65;9.35;;;;;;;10.06;64.98;98982.44;4981219;28;20109;-47
2022/04/12 08:08:36;;;;;;;20.75;9.63;;;;;;;10.12;65.17;98984.94;4984134;28;20042;-42
2022/04/12 08:11:04;;;;;;;22.35;9.68;;;;;;;10.24;64.97;98999.38;4984895;28;20109;-44
2022/04/12 08:13:31;;;;;;;25.55;10.27;;;;;;;10.54;65.51;99028.19;4982507;28;20047;-43
2022/04/12 08:15:59;;;;;;;24.73;11.63;;;;;;;10.95;65.58;99035.19;4983848;28;20157;-43
2022/04/12 08:18:26;;;;;;;22.55;10.57;;;;;;;11.36;65.67;99029.13;4985658;28;20058;-41
2022/04/12 08:20:54;;;;;;;20.30;9.88;;;;;;;11.55;64.79;99021.81;4982069;28;20626;-43
2022/04/12 08:23:22;;;;;;;17.02;7.45;;;;;;;11.97;64.50;99020.78;4978959;28;20058;-43
2022/04/12 08:25:50;;;;;;;20.08;8.68;;;;;;;12.64;63.61;99031.22;4981000;28;20058;-48
2022/04/12 08:28:17;;;;;;;19.08;9.65;;;;;;;13.31;60.22;99031.91;4980223;28;20050;-43
2022/04/12 08:30:49;;;;;;;17.80;8.65;;;;;;;13.90;60.76;99039.63;4984940;28;20054;-43
2022/04/12 08:33:16;;;;;;;18.63;9.45;;;;;;;14.27;58.29;99038.41;4980101;28;20050;-46
2022/04/12 08:35:43;;;;;;;20.52;8.95;;;;;;;14.47;57.82;99039.47;4977516;28;20054;-43
2022/04/12 08:38:10;;;;;;;19.90;9.45;;;;;;;14.72;57.77;99043.81;4983318;28;20132;-46
2022/04/12 08:40:38;;;;;;;19.20;9.10;;;;;;;14.70;57.15;99035.19;4980572;28;20046;-42
2022/04/12 08:43:06;;;;;;;16.83;9.10;;;;;;;14.44;56.37;99034.38;4978585;28;20104;-45
2022/04/12 08:45:36;;;;;;;17.40;10.20;;;;;;;14.11;57.14;99046.75;4976957;28;20054;-47
2022/04/12 08:48:05;;;;;;;18.63;9.35;;;;;;;13.70;58.74;99051.53;4978928;28;20093;-42
2022/04/12 08:50:34;;;;;;;17.42;8.88;;;;;;;13.39;58.76;99049.88;4980748;28;20096;-42
2022/04/12 08:53:01;;;;;;;17.83;9.20;;;;;;;13.19;59.45;99059.13;4980732;28;20046;-44
2022/04/12 08:55:27;;;;;;;19.15;9.15;;;;;;;12.97;59.55;99063.19;4980613;28;20054;-44
2022/04/12 08:57:54;;;;;;;18.33;8.43;;;;;;;12.75;60.93;99059.50;4981858;28;20050;-45
2022/04/12 09:00:21;;;;;;;18.33;9.45;;;;;;;12.65;61.73;99070.16;4981537;28;20058;-43
2022/04/12 09:02:53;;;;;;;21.90;10.35;;;;;;;12.58;61.11;99073.78;4981867;28;20046;-47
2022/04/12 09:05:21;;;;;;;19.60;9.57;;;;;;;12.53;62.17;99081.69;4983286;28;20056;-44
2022/04/12 09:07:48;;;;;;;20.63;10.43;;;;;;;12.46;61.12;99090.53;4979735;28;20871;-42
2022/04/12 09:10:16;;;;;;;19.52;9.68;;;;;;;12.47;61.86;99076.69;4982375;28;20047;-45
2022/04/12 09:12:43;;;;;;;22.55;9.82;;;;;;;12.52;61.61;99042.78;4981111;28;20100;-46
2022/04/12 09:15:12;;;;;;;22.70;10.48;;;;;;;12.57;61.88;99046.97;4982357;28;20445;-45
2022/04/12 09:17:41;;;;;;;17.75;9.88;;;;;;;12.63;62.44;99045.09;4983705;28;20055;-45
2022/04/12 09:22:46;;;;;;;22.30;9.88;;;;;;;12.78;61.88;99044.69;5023400;28;20413;-45
2022/04/12 09:25:15;;;;;;;21.25;8.57;;;;;;;12.87;61.95;99029.72;4996961;28;20049;-44
2022/04/12 09:27:44;;;;;;;18.55;8.50;;;;;;;12.92;61.92;99020.03;5000585;28;20057;-43
2022/04/12 09:30:13;;;;;;;19.50;8.55;;;;;;;12.96;62.83;99024.25;5000539;28;20050;-43
2022/04/12 09:32:42;;;;;;;21.52;8.70;;;;;;;13.01;61.85;99019.78;5000820;28;20054;-44
2022/04/12 09:35:09;;;;;;;14.80;7.45;;;;;;;13.03;61.31;99028.38;5002455;28;20100;-43
2022/04/12 09:37:38;;;;;;;21.25;8.73;;;;;;;13.05;61.73;99017.94;5000701;28;20054;-47
2022/04/12 09:40:08;;;;;;;22.80;8.73;;;;;;;13.03;61.88;99020.56;5004580;28;20050;-44
2022/04/12 09:45:32;;;;;;;24.38;10.25;;;;;;;13.07;62.90;99018.75;5139258;27;20434;-42
2022/04/12 09:48:02;;;;;;;18.75;8.43;;;;;;;13.04;62.04;99011.88;5102350;28;20097;-43
2022/04/12 09:50:51;;;;;;;18.05;7.93;;;;;;;13.12;62.75;99006.47;5091874;28;20140;-43
2022/04/12 09:53:17;;;;;;;19.23;8.00;;;;;;;13.15;61.94;99011.56;5103230;28;20039;-43
2022/04/12 09:55:46;;;;;;;20.65;9.40;;;;;;;13.20;62.58;99003.63;5093110;27;20043;-43
2022/04/12 09:58:15;;;;;;;21.55;10.02;;;;;;;13.24;61.83;98994.81;5098750;28;20047;-47
2022/04/12 10:00:45;;;;;;;16.38;9.25;;;;;;;13.30;62.44;98986.84;5110705;28;20048;-43
2022/04/12 10:03:13;;;;;;;19.88;8.13;;;;;;;13.36;61.43;98983.19;5094186;28;20139;-49
2022/04/12 10:05:42;;;;;;;21.55;9.63;;;;;;;13.44;61.76;98982.97;5095137;28;20049;-46
2022/04/12 10:08:10;;;;;;;22.55;9.93;;;;;;;13.48;61.13;98976.78;5098824;28;20059;-43
2022/04/12 10:10:40;;;;;;;21.00;8.60;;;;;;;13.54;61.41;98981.78;5094903;28;20047;-44
2022/04/12 10:13:09;;;;;;;16.58;7.70;;;;;;;13.60;61.82;98986.81;5094738;28;20059;-44
2022/04/12 10:15:37;;;;;;;24.38;9.38;;;;;;;13.69;61.38;98979.59;5098439;28;20079;-46
2022/04/12 10:18:04;;;;;;;17.83;9.02;;;;;;;13.79;61.81;98970.59;5100217;28;20063;-44
2022/04/12 10:20:31;;;;;;;20.88;9.38;;;;;;;13.91;61.43;98973.69;5095030;28;20069;-42
2022/04/12 10:22:59;;;;;;;18.80;8.75;;;;;;;14.02;61.16;98961.16;5096148;28;20052;-43
2022/04/12 10:25:26;;;;;;;20.23;9.25;;;;;;;14.23;60.66;98963.91;5091486;28;20113;-44
2022/04/12 10:27:57;;;;;;;20.65;8.82;;;;;;;14.51;60.95;98955.09;5100514;28;20055;-44
2022/04/12 10:30:27;;;;;;;17.17;8.38;;;;;;;14.70;59.92;98951.81;5097498;28;20052;-46
2022/04/12 10:38:46;;;;;;;18.92;8.60;;;;;;;15.04;59.06;98935.75;5156420;27;20387;-40
2022/04/12 10:41:17;;;;;;;34.63;10.02;;;;;;;15.15;58.98;98942.31;5112819;27;20063;-43
2022/04/12 10:43:44;;;;;;;25.33;8.30;;;;;;;15.23;58.34;98936.78;5102381;28;20040;-44
2022/04/12 10:46:18;;;;;;;16.33;8.68;;;;;;;15.34;59.08;98947.66;5108921;27;20082;-40
2022/04/12 10:48:54;;;;;;;16.15;7.93;;;;;;;15.49;57.82;98950.53;5106469;28;20066;-41
2022/04/12 10:51:36;;;;;;;17.80;8.18;;;;;;;15.68;58.49;98961.91;5109893;28;20047;-41
2022/04/12 10:54:03;;;;;;;20.92;8.23;;;;;;;15.93;57.80;98955.66;5110423;27;20048;-42
2022/04/12 10:56:30;;;;;;;19.60;8.88;;;;;;;16.23;58.63;98956.19;5109219;27;20044;-43
2022/04/12 10:58:57;;;;;;;19.95;7.90;;;;;;;16.57;57.11;98960.78;5111535;27;20117;-41
2022/04/12 11:01:30;;;;;;;16.05;8.40;;;;;;;16.78;56.15;98959.84;5109888;28;20043;-41
2022/04/12 11:04:00;;;;;;;18.42;8.48;;;;;;;16.90;56.56;98961.94;5105156;28;20469;-40
2022/04/12 11:06:29;;;;;;;16.45;7.90;;;;;;;17.25;56.64;98981.31;5113851;27;20313;-42
2022/04/12 11:11:52;;;;;;;16.55;9.27;;;;;;;18.56;55.07;98987.91;5042574;28;20767;-42
2022/04/12 11:14:36;;;;;;;14.40;9.02;;;;;;;18.63;54.26;98976.19;5020235;28;20059;-41
2022/04/12 11:17:07;;;;;;;14.10;8.93;;;;;;;18.70;53.74;98972.31;5018713;28;20053;-43
2022/04/12 11:19:51;;;;;;;15.68;8.77;;;;;;;18.75;52.61;98975.50;5020001;28;20053;-42
2022/04/12 11:22:18;;;;;;;52.90;10.75;;;;;;;18.75;52.18;98980.75;5000751;28;20457;-43
2022/04/12 11:25:14;;;;;;;15.77;8.32;;;;;;;18.43;52.30;98975.47;4999294;28;20057;-44
2022/04/12 11:27:40;;;;;;;18.27;9.00;;;;;;;18.33;51.79;98980.34;5022766;28;20050;-44
2022/04/12 11:30:12;;;;;;;12.77;6.93;;;;;;;18.39;53.33;98978.31;5001992;28;20477;-43
2022/04/12 11:32:40;;;;;;;14.73;7.57;;;;;;;18.55;53.04;98986.25;5001992;28;20152;-44
2022/04/12 11:35:09;;;;;;;11.60;7.30;;;;;;;18.75;53.30;98970.28;5001380;28;20054;-42
2022/04/12 11:37:40;;;;;;;14.57;8.80;;;;;;;19.05;52.94;98975.72;5015906;28;20058;-44
2022/04/12 11:40:07;;;;;;;17.48;9.05;;;;;;;19.26;52.88;98979.78;5001493;28;20058;-44
2022/04/12 11:42:34;;;;;;;11.52;6.32;;;;;;;19.38;52.27;98974.78;5002749;28;20401;-45
2022/04/12 11:45:01;;;;;;;13.77;8.48;;;;;;;19.51;51.61;98977.56;5000461;28;20053;-42
2022/04/12 11:47:33;;;;;;;10.60;5.60;;;;;;;19.49;51.81;98975.00;5001286;28;20379;-42
2022/04/12 11:50:00;;;;;;;13.00;7.60;;;;;;;19.50;51.23;98976.72;4998436;28;20762;-44
2022/04/12 11:52:28;;;;;;;15.95;7.82;;;;;;;19.63;50.88;98970.75;5001665;28;20085;-43